Terminal Aerodrome Forecast
Issued by NWS Atlanta, GA

Home | Current Version | Previous Version | Text Only | Print | Product List | Glossary On
Versions: 1 2 3 4 5 6 7 8 9 10 11 12 13 14 15 16 17 18 19 20 21 22 23 24
966
FTUS42 KFFC 232320
TAFCSG
TAF
KCSG 232320Z 2400/2424 11003KT P6SM FEW050
     FM240400 11003KT P6SM SCT030
     FM241000 10003KT 5SM BR SCT010
     FM241500 17007KT P6SM SCT040=

USA.gov is the U.S. government's official web portal to all federal, state and local government web resources and services.